Time;durP1;ratioP1;P1;durP2;ratioP2;P2;SDS_P1;SDS_P2;PMS_P1;PMS_P2;Temp;Humidity;BMP_temperature;BMP_pressure;BME280_temperature;BME280_humidity;BME280_pressure;Samples;Min_cycle;Max_cycle;Signal;HPM_P1;HPM_P2
2022/07/13 00:01:45;;;;;;;5.10;0.90;;;;;;;17.49;56.75;99983.20;106213;1271;22560;-82
2022/07/13 00:04:12;;;;;;;1.80;0.90;;;;;;;17.48;56.97;99975.44;107632;1270;22479;-86
2022/07/13 00:06:39;;;;;;;5.00;1.00;;;;;;;17.46;57.34;99976.05;106960;1271;24232;-79
2022/07/13 00:09:06;;;;;;;3.00;1.00;;;;;;;17.43;57.28;99982.91;106306;1271;25242;-78
2022/07/13 00:11:33;;;;;;;4.00;1.20;;;;;;;17.43;57.68;99973.15;106305;1270;25366;-77
2022/07/13 00:14:00;;;;;;;2.60;1.10;;;;;;;17.39;57.96;99969.41;106320;1271;25650;-78
2022/07/13 00:16:27;;;;;;;2.50;1.00;;;;;;;17.40;58.22;99982.34;106185;1271;22690;-78
2022/07/13 00:18:53;;;;;;;3.60;1.00;;;;;;;17.37;58.55;99977.16;105819;1276;25497;-77
2022/07/13 00:21:20;;;;;;;15.00;1.50;;;;;;;17.35;58.45;99979.04;105938;1277;22516;-79
2022/07/13 00:23:47;;;;;;;4.10;1.30;;;;;;;17.32;58.76;99979.47;105969;1276;22726;-79
2022/07/13 00:26:14;;;;;;;1.90;0.90;;;;;;;17.30;58.95;99976.01;105896;1276;24312;-79
2022/07/13 00:28:41;;;;;;;1.80;0.70;;;;;;;17.24;59.23;99983.73;105812;1276;24678;-78
2022/07/13 00:31:08;;;;;;;6.90;1.30;;;;;;;17.25;59.26;99981.37;106030;1277;25595;-80
2022/07/13 00:33:35;;;;;;;3.50;1.10;;;;;;;17.22;59.72;99979.92;105969;1276;22609;-79
2022/07/13 00:36:02;;;;;;;1.60;1.20;;;;;;;17.18;59.77;99980.60;105910;1276;22602;-77
2022/07/13 00:38:29;;;;;;;1.20;0.90;;;;;;;17.16;59.95;99982.65;106085;1271;24263;-78
2022/07/13 00:40:56;;;;;;;3.00;1.30;;;;;;;17.13;60.08;99983.71;106136;1271;22688;-79
2022/07/13 00:43:23;;;;;;;1.30;1.00;;;;;;;17.09;60.04;99982.41;106164;1272;24056;-78
2022/07/13 00:45:51;;;;;;;2.40;1.10;;;;;;;17.07;60.24;99981.06;106135;1273;24199;-79
2022/07/13 00:48:18;;;;;;;3.80;1.30;;;;;;;17.02;60.62;99983.73;106304;1273;25317;-80
2022/07/13 00:50:45;;;;;;;3.20;1.70;;;;;;;16.96;60.89;99982.58;106159;1273;22543;-82
2022/07/13 00:53:13;;;;;;;3.40;1.20;;;;;;;16.92;61.01;99988.81;105709;1278;23139;-80
2022/07/13 00:55:40;;;;;;;1.40;0.90;;;;;;;16.88;61.06;99985.94;105687;1279;22701;-78
2022/07/13 00:58:08;;;;;;;2.50;1.10;;;;;;;16.85;61.45;99984.45;105714;1279;22532;-81
2022/07/13 01:00:36;;;;;;;2.10;1.30;;;;;;;16.81;61.71;99981.59;105813;1278;22560;-80
2022/07/13 01:03:03;;;;;;;1.90;1.00;;;;;;;16.77;62.12;99984.42;105936;1277;22595;-81
2022/07/13 01:05:31;;;;;;;2.00;1.00;;;;;;;16.73;62.31;99977.14;105783;1279;24234;-80
2022/07/13 01:07:59;;;;;;;2.30;1.40;;;;;;;16.69;62.36;99976.57;105776;1279;22778;-78
2022/07/13 01:10:26;;;;;;;4.30;1.40;;;;;;;16.68;62.67;99979.85;105809;1279;24236;-77
2022/07/13 01:12:53;;;;;;;2.40;1.10;;;;;;;16.64;63.13;99978.23;106339;1272;22953;-80
2022/07/13 01:15:21;;;;;;;1.90;1.10;;;;;;;16.60;63.62;99971.08;106327;1272;22541;-79
2022/07/13 01:17:49;;;;;;;2.50;1.20;;;;;;;16.58;63.95;99975.59;106475;1273;22526;-81
2022/07/13 01:20:17;;;;;;;1.60;1.40;;;;;;;16.56;64.11;99972.99;106683;1273;22688;-81
2022/07/13 01:22:45;;;;;;;2.80;1.80;;;;;;;16.56;64.30;99967.69;106901;1273;23840;-80
2022/07/13 01:25:14;;;;;;;6.20;1.70;;;;;;;16.55;64.54;99969.30;108297;1273;22544;-79
2022/07/13 01:27:42;;;;;;;2.10;1.70;;;;;;;16.54;64.59;99961.02;108348;1271;26558;-79
2022/07/13 01:30:10;;;;;;;2.20;1.20;;;;;;;16.55;64.80;99961.48;107139;1272;22545;-79
2022/07/13 01:32:50;;;;;;;2.40;1.50;;;;;;;16.58;65.14;99949.67;106750;1271;22540;-77
2022/07/13 01:35:21;;;;;;;1.70;1.20;;;;;;;16.59;65.42;99957.27;106971;1271;25255;-80
2022/07/13 01:37:48;;;;;;;2.80;1.30;;;;;;;16.56;65.71;99958.42;106692;1271;25657;-78
2022/07/13 01:40:16;;;;;;;2.40;1.00;;;;;;;16.55;65.78;99955.81;106378;1277;22691;-77
2022/07/13 01:42:48;;;;;;;2.40;1.60;;;;;;;16.55;65.93;99956.18;106091;1276;22773;-77
2022/07/13 01:45:22;;;;;;;2.60;1.70;;;;;;;16.55;66.05;99947.45;106314;1276;22671;-77
2022/07/13 01:47:56;;;;;;;2.90;1.30;;;;;;;16.56;66.04;99952.92;108192;1276;22703;-77
2022/07/13 01:50:30;;;;;;;4.20;1.30;;;;;;;16.58;65.89;99950.88;109293;1276;25182;-77
2022/07/13 01:52:57;;;;;;;2.80;1.10;;;;;;;16.59;66.20;99950.66;109035;1274;22663;-78
2022/07/13 01:55:28;;;;;;;3.10;1.60;;;;;;;16.60;66.20;99941.02;109576;1275;22602;-77
2022/07/13 01:57:59;;;;;;;2.50;1.50;;;;;;;16.62;66.72;99945.95;108413;1279;23294;-80
2022/07/13 02:00:29;;;;;;;4.00;1.30;;;;;;;16.62;66.41;99947.71;109679;1277;22972;-82
2022/07/13 02:02:56;;;;;;;2.50;1.50;;;;;;;16.64;66.73;99941.78;109401;1278;23218;-81
2022/07/13 02:05:26;;;;;;;4.80;1.40;;;;;;;16.62;66.90;99944.52;108856;1278;22603;-83
2022/07/13 02:07:54;;;;;;;1.40;1.20;;;;;;;16.63;66.89;99939.14;107118;1278;25298;-84
2022/07/13 02:10:34;;;;;;;2.40;1.40;;;;;;;16.62;67.07;99941.48;106110;1279;23934;-79
2022/07/13 02:13:04;;;;;;;3.60;1.50;;;;;;;16.62;67.03;99941.33;105517;1279;22557;-77
2022/07/13 02:15:32;;;;;;;2.10;1.50;;;;;;;16.60;67.20;99933.06;105967;1273;25261;-77
2022/07/13 02:17:59;;;;;;;3.60;1.30;;;;;;;16.62;67.13;99938.48;106323;1273;24727;-77
2022/07/13 02:20:26;;;;;;;3.10;1.60;;;;;;;16.58;67.24;99937.39;106233;1271;24979;-77
2022/07/13 02:22:52;;;;;;;6.30;1.80;;;;;;;16.54;67.65;99946.43;106208;1271;22523;-78
2022/07/13 02:25:20;;;;;;;2.90;1.40;;;;;;;16.51;67.92;99940.73;106306;1271;24461;-76
2022/07/13 02:27:47;;;;;;;2.50;1.40;;;;;;;16.46;68.09;99944.98;106212;1271;25254;-77
2022/07/13 02:30:15;;;;;;;3.10;1.60;;;;;;;16.44;68.29;99943.81;105577;1279;25383;-75
2022/07/13 02:32:44;;;;;;;3.10;1.40;;;;;;;16.41;68.26;99948.56;105478;1279;25514;-76
2022/07/13 02:35:13;;;;;;;2.00;1.60;;;;;;;16.38;68.73;99951.34;105959;1279;25251;-76
2022/07/13 02:37:42;;;;;;;3.70;1.60;;;;;;;16.36;68.87;99942.38;105906;1279;22537;-76
2022/07/13 02:40:11;;;;;;;2.40;1.60;;;;;;;16.36;69.06;99951.28;105800;1279;22727;-82
2022/07/13 02:42:45;;;;;;;3.40;1.90;;;;;;;16.34;69.39;99946.72;105901;1278;22544;-80
2022/07/13 02:45:13;;;;;;;4.50;1.60;;;;;;;16.32;69.22;99945.38;106023;1279;22702;-82
2022/07/13 02:47:39;;;;;;;7.40;1.70;;;;;;;16.27;69.68;99949.30;105831;1277;22528;-82
2022/07/13 02:50:07;;;;;;;2.50;1.40;;;;;;;16.29;69.75;99946.38;106395;1273;24259;-80
2022/07/13 02:52:36;;;;;;;3.30;1.50;;;;;;;16.28;69.85;99948.91;106324;1271;22550;-82
2022/07/13 02:55:03;;;;;;;3.10;1.40;;;;;;;16.28;69.85;99946.40;106782;1272;24259;-79
2022/07/13 02:57:30;;;;;;;4.80;1.40;;;;;;;16.28;69.97;99941.27;106935;1273;24231;-80
2022/07/13 02:59:59;;;;;;;1.40;1.30;;;;;;;16.28;70.01;99947.31;106445;1272;22528;-79
2022/07/13 03:02:26;;;;;;;1.40;1.30;;;;;;;16.27;70.04;99939.70;107794;1271;22681;-79
2022/07/13 03:04:54;;;;;;;1.60;1.40;;;;;;;16.29;70.13;99944.06;107862;1276;22622;-79
2022/07/13 03:07:22;;;;;;;4.10;1.70;;;;;;;16.30;70.03;99945.42;105951;1282;25628;-83
2022/07/13 03:09:49;;;;;;;4.20;2.00;;;;;;;16.32;70.12;99949.27;106410;1283;23224;-81
2022/07/13 03:12:23;;;;;;;6.00;1.70;;;;;;;16.33;70.00;99947.29;106076;1283;25554;-79
2022/07/13 03:14:50;;;;;;;2.90;1.40;;;;;;;16.35;70.00;99946.68;105958;1282;23007;-79
2022/07/13 03:17:18;;;;;;;5.20;1.50;;;;;;;16.37;70.14;99946.27;105755;1281;22632;-79
2022/07/13 03:19:45;;;;;;;5.60;1.60;;;;;;;16.37;70.21;99947.13;105699;1282;22704;-82
2022/07/13 03:22:12;;;;;;;5.30;1.80;;;;;;;16.39;69.96;99938.87;105540;1282;22540;-79
2022/07/13 03:24:40;;;;;;;4.80;1.60;;;;;;;16.35;69.84;99938.67;105365;1277;25283;-83
2022/07/13 03:27:06;;;;;;;3.10;1.80;;;;;;;16.39;69.85;99941.16;106047;1274;23182;-80
2022/07/13 03:29:33;;;;;;;5.20;1.60;;;;;;;16.41;69.81;99950.69;106500;1274;22706;-80
2022/07/13 03:32:01;;;;;;;4.10;1.50;;;;;;;16.43;69.89;99946.34;106043;1273;22595;-79
2022/07/13 03:34:28;;;;;;;3.80;1.80;;;;;;;16.44;69.97;99943.29;106167;1271;25461;-79
2022/07/13 03:36:55;;;;;;;7.10;1.80;;;;;;;16.44;70.00;99953.09;106033;1273;22595;-76
2022/07/13 03:39:22;;;;;;;2.50;1.20;;;;;;;16.43;70.00;99952.94;106022;1273;25326;-78
2022/07/13 03:41:48;;;;;;;4.90;1.50;;;;;;;16.41;70.21;99950.70;105920;1274;22545;-78
2022/07/13 03:44:15;;;;;;;3.00;1.60;;;;;;;16.43;70.24;99946.00;105959;1274;22525;-75
2022/07/13 03:46:43;;;;;;;3.00;1.10;;;;;;;16.43;70.19;99949.03;106068;1273;24994;-75
2022/07/13 03:49:10;;;;;;;1.90;1.60;;;;;;;16.44;70.16;99948.09;106092;1273;24287;-78
2022/07/13 03:51:38;;;;;;;5.00;1.40;;;;;;;16.42;70.27;99950.63;105935;1274;23070;-78
2022/07/13 03:54:05;;;;;;;5.70;1.20;;;;;;;16.43;70.13;99952.92;106167;1273;22703;-76
2022/07/13 03:56:32;;;;;;;6.20;1.20;;;;;;;16.44;70.13;99952.34;106123;1273;24384;-77
2022/07/13 03:58:59;;;;;;;4.60;1.30;;;;;;;16.45;70.12;99945.92;106106;1273;22542;-78
2022/07/13 04:01:26;;;;;;;2.40;1.60;;;;;;;16.46;70.08;99957.44;106250;1271;25273;-85
2022/07/13 04:03:54;;;;;;;3.40;1.40;;;;;;;16.45;70.09;99959.45;106156;1272;22524;-83
2022/07/13 04:06:21;;;;;;;3.60;1.30;;;;;;;16.48;70.09;99965.90;106170;1273;24247;-87
2022/07/13 04:08:48;;;;;;;2.70;1.50;;;;;;;16.47;70.19;99962.38;106159;1273;22546;-87
2022/07/13 04:11:15;;;;;;;2.60;1.40;;;;;;;16.44;70.36;99964.27;106354;1273;23404;-83
2022/07/13 04:13:43;;;;;;;4.70;1.60;;;;;;;16.43;70.22;99959.69;106239;1273;22529;-85
2022/07/13 04:16:10;;;;;;;6.20;1.50;;;;;;;16.42;70.26;99970.20;106194;1276;24114;-83
2022/07/13 04:18:37;;;;;;;2.30;1.30;;;;;;;16.44;70.40;99968.52;105960;1276;22541;-83
2022/07/13 04:21:05;;;;;;;2.20;1.20;;;;;;;16.45;70.31;99972.04;105927;1276;25923;-78
2022/07/13 04:23:33;;;;;;;3.00;1.40;;;;;;;16.44;70.34;99973.51;105988;1275;25244;-80
2022/07/13 04:26:00;;;;;;;4.80;1.40;;;;;;;16.44;70.31;99965.70;105921;1276;22556;-80
2022/07/13 04:28:27;;;;;;;2.90;1.40;;;;;;;16.42;70.55;99976.40;105874;1277;22630;-83
2022/07/13 04:30:54;;;;;;;4.30;1.80;;;;;;;16.41;70.45;99974.14;105854;1276;22509;-80
2022/07/13 04:33:25;;;;;;;4.00;1.60;;;;;;;16.42;70.50;99972.14;106583;1276;22584;-76
2022/07/13 04:35:52;;;;;;;2.60;1.30;;;;;;;16.43;70.33;99974.42;107656;1271;22496;-77
2022/07/13 04:38:20;;;;;;;2.40;1.30;;;;;;;16.41;70.27;99977.73;107789;1271;25213;-77
2022/07/13 04:40:47;;;;;;;3.30;1.30;;;;;;;16.42;70.57;99971.82;107852;1272;25335;-78
2022/07/13 04:43:14;;;;;;;3.50;1.30;;;;;;;16.44;70.64;99974.05;106876;1273;22511;-80
2022/07/13 04:45:41;;;;;;;8.90;1.80;;;;;;;16.45;70.27;99976.67;106521;1273;25384;-79
2022/07/13 04:48:08;;;;;;;2.90;1.40;;;;;;;16.48;70.28;99971.58;106807;1272;24747;-80
2022/07/13 04:50:35;;;;;;;5.20;1.40;;;;;;;16.52;70.29;99973.55;106445;1277;22619;-79
2022/07/13 04:53:02;;;;;;;2.70;1.40;;;;;;;16.52;70.00;99975.86;107250;1276;22612;-78
2022/07/13 04:55:29;;;;;;;3.60;1.60;;;;;;;16.54;69.96;99974.72;108037;1276;22563;-77
2022/07/13 04:57:57;;;;;;;3.00;1.80;;;;;;;16.55;70.08;99978.19;107295;1277;22564;-77
2022/07/13 05:00:25;;;;;;;9.70;1.40;;;;;;;16.58;69.83;99968.66;108792;1274;22596;-78
2022/07/13 05:02:52;;;;;;;4.40;1.50;;;;;;;16.58;69.82;99978.60;109600;1275;22576;-78
2022/07/13 05:05:21;;;;;;;6.30;1.60;;;;;;;16.59;69.70;99980.36;109149;1280;22553;-79
2022/07/13 05:07:48;;;;;;;3.80;1.40;;;;;;;16.63;69.76;99975.97;108762;1279;22569;-78
2022/07/13 05:10:15;;;;;;;2.50;1.40;;;;;;;16.64;69.73;99978.41;109214;1279;22796;-81
2022/07/13 05:12:46;;;;;;;4.20;1.80;;;;;;;16.63;69.72;99982.48;106889;1279;22718;-82
2022/07/13 05:15:33;;;;;;;3.00;1.50;;;;;;;16.65;69.75;99982.42;106807;1279;22556;-80
2022/07/13 05:18:04;;;;;;;3.60;1.40;;;;;;;16.66;69.53;99982.91;107413;1279;25405;-85
2022/07/13 05:20:31;;;;;;;4.20;1.50;;;;;;;16.68;69.37;99983.54;106299;1279;25324;-78
2022/07/13 05:22:59;;;;;;;3.00;1.40;;;;;;;16.69;69.20;99983.52;106043;1273;25200;-81
2022/07/13 05:25:29;;;;;;;9.90;2.20;;;;;;;16.71;69.12;99984.50;106139;1273;22713;-79
2022/07/13 05:27:56;;;;;;;5.00;1.40;;;;;;;16.72;69.01;99982.18;106203;1271;22611;-83
2022/07/13 05:30:27;;;;;;;3.10;1.50;;;;;;;16.73;69.02;99984.27;106456;1272;25413;-79
2022/07/13 05:32:55;;;;;;;3.30;1.20;;;;;;;16.75;69.06;99983.84;106258;1274;22626;-77
2022/07/13 05:35:23;;;;;;;2.80;1.20;;;;;;;16.77;68.89;99983.91;106325;1271;22711;-81
2022/07/13 05:37:50;;;;;;;1.70;1.10;;;;;;;16.77;68.76;99981.77;106236;1271;24113;-80
2022/07/13 05:40:17;;;;;;;3.00;1.20;;;;;;;16.77;68.87;99984.09;106263;1274;22609;-81
2022/07/13 05:42:44;;;;;;;2.00;1.20;;;;;;;16.78;68.75;99986.18;106247;1271;22524;-80
2022/07/13 05:45:12;;;;;;;2.20;1.50;;;;;;;16.79;68.82;99983.10;106100;1273;24310;-80
2022/07/13 05:47:45;;;;;;;1.90;1.20;;;;;;;16.83;68.82;99989.49;106268;1271;24237;-78
2022/07/13 05:50:14;;;;;;;2.20;1.00;;;;;;;16.87;68.71;99990.95;106306;1271;22547;-80
2022/07/13 05:52:42;;;;;;;3.30;1.50;;;;;;;16.93;68.69;99998.70;106208;1274;25669;-79
2022/07/13 05:55:11;;;;;;;3.40;1.50;;;;;;;16.99;68.47;100007.73;106152;1274;26506;-80
2022/07/13 05:57:38;;;;;;;2.90;1.50;;;;;;;17.04;68.26;100014.61;106276;1272;25397;-81
2022/07/13 06:00:11;;;;;;;3.30;1.20;;;;;;;17.09;68.32;100016.73;106161;1271;25554;-79
2022/07/13 06:02:39;;;;;;;2.30;1.00;;;;;;;17.12;68.25;100011.27;106163;1271;23919;-79
2022/07/13 06:05:06;;;;;;;5.20;1.30;;;;;;;17.23;68.19;100009.58;106036;1273;25640;-80
2022/07/13 06:07:34;;;;;;;2.60;1.30;;;;;;;17.29;67.92;100013.80;106160;1272;22586;-79
2022/07/13 06:10:01;;;;;;;1.00;0.90;;;;;;;17.32;67.78;100013.46;106090;1274;22574;-79
2022/07/13 06:12:28;;;;;;;1.50;0.90;;;;;;;17.38;67.51;100011.64;106318;1272;22613;-83
2022/07/13 06:14:55;;;;;;;3.10;1.20;;;;;;;17.41;67.34;100015.02;106335;1274;25265;-80
2022/07/13 06:17:22;;;;;;;3.70;1.40;;;;;;;17.46;67.21;100018.39;106282;1272;24295;-81
2022/07/13 06:19:49;;;;;;;5.70;1.20;;;;;;;17.50;67.07;100017.31;106562;1271;24224;-81
2022/07/13 06:22:17;;;;;;;4.40;1.40;;;;;;;17.55;66.77;100013.38;108055;1271;22532;-81
2022/07/13 06:24:44;;;;;;;3.80;1.30;;;;;;;17.58;66.43;100015.91;108592;1273;22533;-78
2022/07/13 06:27:11;;;;;;;1.30;1.20;;;;;;;17.62;66.08;100021.61;107730;1271;22621;-81
2022/07/13 06:29:40;;;;;;;8.50;2.20;;;;;;;17.68;65.91;100025.98;107506;1272;22994;-79
2022/07/13 06:32:07;;;;;;;7.50;1.60;;;;;;;17.74;65.80;100024.82;107942;1271;22579;-78
2022/07/13 06:34:34;;;;;;;2.10;1.10;;;;;;;17.82;65.31;100019.84;107229;1274;22602;-79
2022/07/13 06:37:02;;;;;;;4.60;1.30;;;;;;;17.90;64.91;100022.69;107321;1271;25515;-80
2022/07/13 06:39:48;;;;;;;4.20;1.40;;;;;;;18.01;64.67;100024.16;106281;1271;22548;-80
2022/07/13 06:42:15;;;;;;;2.40;1.20;;;;;;;18.04;64.47;100020.80;106035;1271;299753;-82
2022/07/13 06:44:46;;;;;;;4.60;1.50;;;;;;;18.13;64.41;100021.47;106100;1273;22565;-77
2022/07/13 06:47:13;;;;;;;5.00;1.30;;;;;;;18.21;64.32;100025.61;106191;1271;22723;-77
2022/07/13 06:49:39;;;;;;;1.70;1.10;;;;;;;18.29;64.40;100022.89;106315;1271;25624;-78
2022/07/13 06:52:08;;;;;;;3.20;1.10;;;;;;;18.37;64.24;100019.67;106203;1274;22617;-79
2022/07/13 06:54:34;;;;;;;2.50;1.00;;;;;;;18.46;63.89;100023.32;106234;1272;24202;-81
2022/07/13 06:57:01;;;;;;;4.30;1.40;;;;;;;18.59;63.82;100020.07;106282;1274;24056;-81
2022/07/13 06:59:29;;;;;;;0.80;0.80;;;;;;;18.71;63.80;100023.21;106351;1271;25370;-81
2022/07/13 07:01:56;;;;;;;2.20;1.10;;;;;;;18.87;62.89;100025.13;106341;1271;24234;-80
2022/07/13 07:04:23;;;;;;;1.50;1.00;;;;;;;19.05;62.70;100026.38;106368;1272;22563;-79
2022/07/13 07:06:50;;;;;;;5.10;1.00;;;;;;;19.20;62.01;100023.48;106270;1272;24331;-81
2022/07/13 07:09:17;;;;;;;1.10;0.80;;;;;;;19.39;61.84;100018.27;106281;1273;25234;-80
2022/07/13 07:11:46;;;;;;;2.80;1.60;;;;;;;19.57;60.36;100018.55;106007;1271;22532;-83
2022/07/13 07:14:13;;;;;;;3.10;1.10;;;;;;;19.76;59.50;100020.98;106247;1274;22542;-80
2022/07/13 07:16:40;;;;;;;3.70;1.00;;;;;;;19.91;59.20;100022.66;106482;1271;25370;-79
2022/07/13 07:19:07;;;;;;;2.20;1.00;;;;;;;20.00;58.39;100021.48;106238;1271;25365;-80
2022/07/13 07:21:51;;;;;;;1.60;1.10;;;;;;;20.06;57.54;100025.48;106144;1273;22687;-81
2022/07/13 07:24:18;;;;;;;4.70;1.00;;;;;;;20.14;57.41;100010.03;106195;1271;25367;-82
2022/07/13 07:26:45;;;;;;;1.30;1.00;;;;;;;20.21;56.56;100011.44;106677;1271;26700;-81
2022/07/13 07:29:12;;;;;;;1.90;1.10;;;;;;;20.28;56.75;100008.02;106472;1271;24296;-81
2022/07/13 07:31:39;;;;;;;4.50;1.60;;;;;;;20.42;56.90;100007.97;106379;1271;22533;-81
2022/07/13 07:34:06;;;;;;;2.80;1.20;;;;;;;20.51;56.83;100006.20;106480;1274;25261;-82
2022/07/13 07:36:32;;;;;;;2.10;1.00;;;;;;;20.55;56.15;100000.64;106542;1274;22537;-83
2022/07/13 07:39:00;;;;;;;1.50;1.00;;;;;;;20.59;55.48;100001.29;106872;1271;25468;-82
2022/07/13 07:41:27;;;;;;;2.10;1.20;;;;;;;20.67;55.20;100000.10;106577;1273;25254;-80
2022/07/13 07:43:54;;;;;;;3.90;1.90;;;;;;;20.76;55.19;100004.96;106560;1272;24527;-81
2022/07/13 07:46:21;;;;;;;6.90;2.40;;;;;;;20.87;54.77;100005.43;106538;1271;22711;-77
2022/07/13 07:48:48;;;;;;;12.50;4.00;;;;;;;20.96;53.77;99997.91;106551;1273;24231;-83
2022/07/13 07:51:15;;;;;;;3.60;2.10;;;;;;;21.06;53.65;100005.04;106522;1271;22538;-80
2022/07/13 07:53:43;;;;;;;4.20;1.70;;;;;;;21.16;53.15;100003.55;106236;1272;25170;-82
2022/07/13 07:56:12;;;;;;;8.30;2.90;;;;;;;21.31;52.93;100006.44;106446;1271;23092;-81
2022/07/13 07:58:40;;;;;;;4.40;1.20;;;;;;;21.40;51.78;99999.29;106787;1271;25306;-81
2022/07/13 08:01:06;;;;;;;7.30;1.60;;;;;;;21.50;49.85;99998.15;106346;1272;22831;-81
2022/07/13 08:03:33;;;;;;;3.00;0.90;;;;;;;21.60;49.37;99995.52;107010;1271;25912;-82
2022/07/13 08:06:00;;;;;;;2.70;1.50;;;;;;;21.69;48.82;99998.73;107611;1271;22542;-82
2022/07/13 08:08:27;;;;;;;5.80;2.50;;;;;;;21.79;48.91;99992.80;109518;1271;22545;-83
2022/07/13 08:10:54;;;;;;;4.10;2.50;;;;;;;21.90;48.76;99992.83;108901;1278;22807;-82
2022/07/13 08:13:21;;;;;;;4.90;2.10;;;;;;;22.04;49.31;99996.13;109217;1276;23181;-81
2022/07/13 08:15:50;;;;;;;5.00;1.80;;;;;;;22.17;49.46;99993.48;108945;1276;22638;-82
2022/07/13 08:18:18;;;;;;;1.80;0.90;;;;;;;22.31;48.92;99991.55;109383;1276;22728;-82
2022/07/13 08:21:06;;;;;;;7.90;1.20;;;;;;;22.40;48.07;99988.60;108667;1276;24252;-82
2022/07/13 08:23:52;;;;;;;3.80;1.70;;;;;;;22.53;47.72;99984.73;106279;1277;22598;-82
2022/07/13 08:26:20;;;;;;;3.40;1.30;;;;;;;22.70;47.20;99989.41;107321;1276;22731;-82
2022/07/13 08:28:47;;;;;;;1.60;0.80;;;;;;;22.83;46.67;99997.48;106948;1271;22558;-80
2022/07/13 08:31:15;;;;;;;3.10;0.70;;;;;;;22.88;45.30;99995.36;106484;1271;24325;-81
2022/07/13 08:39:14;;;;;;;1.50;0.80;;;;;;;23.04;45.55;100001.46;106058;1277;22478;-83
2022/07/13 08:41:46;;;;;;;4.40;1.20;;;;;;;23.11;45.19;100010.38;106208;1277;22490;-82
2022/07/13 08:44:14;;;;;;;6.80;1.20;;;;;;;23.16;45.29;100011.13;106130;1278;22527;-81
2022/07/13 08:46:42;;;;;;;4.30;0.80;;;;;;;23.19;45.14;100007.86;105815;1277;22655;-82
2022/07/13 08:49:10;;;;;;;5.20;1.10;;;;;;;23.27;45.59;100014.54;106017;1276;24264;-82
2022/07/13 08:51:42;;;;;;;0.70;0.70;;;;;;;23.33;44.99;100017.10;106711;1274;22668;-82
2022/07/13 08:54:09;;;;;;;0.80;0.50;;;;;;;23.37;44.85;100015.25;106407;1271;25302;-83
2022/07/13 08:56:36;;;;;;;1.30;0.70;;;;;;;23.39;44.01;100023.56;106250;1271;23062;-80
2022/07/13 08:59:03;;;;;;;3.20;0.90;;;;;;;23.40;44.17;100017.22;106193;1274;23960;-81
2022/07/13 09:01:31;;;;;;;3.60;0.90;;;;;;;23.43;44.27;100013.23;106583;1271;22568;-82
2022/07/13 09:04:00;;;;;;;2.60;1.10;;;;;;;23.51;44.85;100024.37;107948;1271;22578;-82
2022/07/13 09:06:39;;;;;;;3.50;1.10;;;;;;;23.65;44.83;100024.88;108578;1271;22525;-82
2022/07/13 09:09:07;;;;;;;1.20;1.00;;;;;;;23.78;44.54;100024.34;106296;1274;22535;-83
2022/07/13 09:11:34;;;;;;;3.60;1.10;;;;;;;23.82;44.38;100017.02;106087;1278;22559;-82
2022/07/13 09:14:01;;;;;;;1.60;1.00;;;;;;;23.97;44.36;100015.24;106158;1278;24449;-82
2022/07/13 09:16:29;;;;;;;1.60;1.10;;;;;;;24.10;44.08;100026.17;107490;1278;22523;-82
2022/07/13 09:18:59;;;;;;;6.50;1.00;;;;;;;24.24;44.37;100025.07;106046;1278;23067;-80
2022/07/13 09:21:33;;;;;;;4.80;1.10;;;;;;;24.39;43.90;100027.03;105919;1277;25481;-83
2022/07/13 09:24:02;;;;;;;2.70;1.20;;;;;;;24.44;42.63;100023.79;106101;1278;22549;-81
2022/07/13 09:26:45;;;;;;;4.60;1.70;;;;;;;24.44;42.55;100024.65;106152;1277;24214;-82
2022/07/13 09:29:14;;;;;;;3.90;1.60;;;;;;;24.53;42.75;100040.80;105929;1271;22555;-80
2022/07/13 09:31:52;;;;;;;3.80;2.00;;;;;;;24.53;41.86;100037.02;105800;1278;22716;-81
2022/07/13 09:34:21;;;;;;;5.50;1.70;;;;;;;24.53;42.18;100040.44;105937;1277;22700;-82
2022/07/13 09:37:09;;;;;;;3.30;1.50;;;;;;;24.56;42.02;100037.88;105961;1277;25236;-83
2022/07/13 09:39:56;;;;;;;5.30;2.10;;;;;;;24.59;42.13;100041.27;105773;1279;22677;-83
2022/07/13 09:42:27;;;;;;;7.80;1.40;;;;;;;24.62;42.51;100046.26;105867;1277;24277;-83
2022/07/13 09:47:54;;;;;;;3.30;1.10;;;;;;;24.63;42.81;100044.91;105939;1278;23669;-84
2022/07/13 09:50:23;;;;;;;6.90;1.50;;;;;;;24.79;42.62;100046.29;106113;1272;22610;-82
2022/07/13 09:52:52;;;;;;;2.60;1.10;;;;;;;24.88;42.34;100055.70;106251;1274;22743;-82
2022/07/13 09:55:22;;;;;;;3.10;1.20;;;;;;;24.94;42.15;100041.42;106121;1271;24074;-81
2022/07/13 09:57:57;;;;;;;5.90;1.40;;;;;;;25.02;41.71;100050.73;106265;1271;22534;-82
2022/07/13 10:00:31;;;;;;;5.00;1.20;;;;;;;25.13;41.49;100060.67;106174;1274;25867;-83
2022/07/13 10:03:01;;;;;;;7.10;1.30;;;;;;;25.12;40.99;100052.29;106359;1274;22696;-84
2022/07/13 10:05:30;;;;;;;4.20;1.40;;;;;;;25.14;41.25;100052.53;106399;1274;25259;-83
2022/07/13 10:07:57;;;;;;;2.00;1.00;;;;;;;25.22;41.71;100053.73;106578;1271;22608;-85
2022/07/13 10:10:26;;;;;;;3.90;1.30;;;;;;;25.32;41.13;100050.42;106394;1272;24248;-81
2022/07/13 10:12:54;;;;;;;3.50;1.40;;;;;;;25.31;40.88;100052.70;106361;1271;22631;-82
2022/07/13 10:15:23;;;;;;;3.30;1.50;;;;;;;25.38;40.82;100054.14;106377;1272;22778;-82
2022/07/13 10:17:53;;;;;;;3.60;1.90;;;;;;;25.51;40.79;100051.16;106426;1274;23943;-81
2022/07/13 10:20:23;;;;;;;2.20;1.30;;;;;;;25.64;40.76;100055.95;106211;1272;26507;-82
2022/07/13 10:22:56;;;;;;;2.20;1.00;;;;;;;25.83;40.95;100055.05;106307;1271;22554;-81
2022/07/13 10:25:45;;;;;;;1.90;1.00;;;;;;;25.94;40.34;100054.37;106316;1272;22541;-82
2022/07/13 10:28:12;;;;;;;3.80;1.90;;;;;;;25.95;40.38;100058.97;106070;1276;25441;-82
2022/07/13 10:30:39;;;;;;;3.60;1.40;;;;;;;25.97;40.58;100062.02;106349;1274;22573;-82
2022/07/13 10:33:21;;;;;;;12.20;2.10;;;;;;;25.99;40.97;100062.61;106297;1271;23617;-81
2022/07/13 10:35:51;;;;;;;1.80;0.90;;;;;;;26.09;41.21;100064.68;106355;1272;25359;-80
2022/07/13 10:38:27;;;;;;;3.70;1.40;;;;;;;26.15;40.56;100056.49;106296;1271;26509;-83
2022/07/13 10:41:17;;;;;;;5.60;1.50;;;;;;;26.13;40.97;100064.43;106336;1271;24210;-82
2022/07/13 10:44:02;;;;;;;2.30;1.60;;;;;;;26.25;41.31;100067.99;106206;1272;22532;-81
2022/07/13 10:46:47;;;;;;;4.30;1.70;;;;;;;26.40;41.37;100065.38;106155;1272;25377;-81
2022/07/13 10:49:30;;;;;;;2.70;1.00;;;;;;;26.53;40.61;100060.37;106445;1271;22646;-83
2022/07/13 10:52:22;;;;;;;1.00;0.70;;;;;;;26.51;40.19;100071.32;106805;1271;25306;-81
2022/07/13 10:55:03;;;;;;;;;;;;;;;26.45;40.61;100063.35;109057;1271;22542;-81
2022/07/13 10:57:32;;;;;;;1.30;1.00;;;;;;;26.49;40.89;100061.17;108185;1271;22498;-82
2022/07/13 11:00:04;;;;;;;2.10;1.20;;;;;;;26.65;40.85;100064.27;109507;1271;22543;-82
2022/07/13 11:02:47;;;;;;;4.30;1.20;;;;;;;26.68;39.78;100068.49;108257;1276;22580;-80
2022/07/13 11:05:17;;;;;;;4.60;1.40;;;;;;;26.59;39.70;100073.56;108585;1276;22570;-80
2022/07/13 11:07:49;;;;;;;4.20;1.60;;;;;;;26.61;39.87;100062.58;108282;1276;22631;-80
2022/07/13 11:10:18;;;;;;;6.90;1.50;;;;;;;26.63;39.54;100071.64;107741;1284;22647;-80
2022/07/13 11:13:09;;;;;;;1.20;1.00;;;;;;;26.69;39.97;100068.39;107035;1284;22882;-80
2022/07/13 11:15:42;;;;;;;5.30;1.70;;;;;;;26.93;40.48;100070.05;108329;1284;22766;-81
2022/07/13 11:18:22;;;;;;;3.30;1.50;;;;;;;27.19;39.86;100068.48;108893;1284;22574;-82
2022/07/13 11:21:00;;;;;;;3.90;1.30;;;;;;;27.26;39.52;100066.30;109080;1277;22575;-83
2022/07/13 11:26:45;;;;;;;5.20;2.10;;;;;;;27.12;40.02;100060.58;109316;1277;22580;-83
2022/07/13 11:29:30;;;;;;;2.40;1.50;;;;;;;27.05;39.86;100064.02;109477;1277;22578;-83
2022/07/13 11:31:59;;;;;;;6.20;1.40;;;;;;;27.10;39.24;100051.75;108568;1277;24058;-81
2022/07/13 11:34:28;;;;;;;2.70;1.20;;;;;;;26.96;39.13;100062.61;106661;1271;22896;-83
2022/07/13 11:37:00;;;;;;;7.50;2.00;;;;;;;26.83;38.94;100061.10;106612;1271;22573;-83
2022/07/13 11:39:33;;;;;;;3.00;2.00;;;;;;;26.94;39.40;100065.29;106269;1271;25370;-83
2022/07/13 11:42:02;;;;;;;2.00;1.30;;;;;;;27.18;39.18;100057.33;106454;1274;22688;-86
2022/07/13 11:44:31;;;;;;;1.30;1.00;;;;;;;27.53;38.32;100064.59;106421;1271;24332;-84